Elkhart, IN

9:06 PM EDT on April 26, 2015 (GMT -0400)
Three Rivers Municipal-Haines | | Change Station
CLOSE
Current Station
Airport
Location: Three Rivers,
Elevation: 823 ft
Nearby Weather Stations

Elev 823 ft 41.96 °N, 85.59 °W | Updated 12 minutes ago

Clear
Clear
49 °F
Feels Like 49 °F
N
7
Wind Variable Wind from NW

Today
High -- | Low -- °F
--% Chance of Precip.
Yesterday
High -- | Low -- °F
Precip. -- in
6:47 AM 8:36 PM
First Quarter, 60% visible
Pressure 29.92 in
Visibility 10.0 miles
Clouds Clear
Dew Point 29 °F
Humidity 45%
Rainfall 0.00 in
Snow Depth Not available.
UV 0 out of 12
Pollen 10.80 out of 12
Air Quality Not available.
Flu Activity Local Activity
METAR KHAI 270054Z AUTO 31006KT 10SM CLR 10/M02 A2992 RMK AO2 T00961019

More Conditions Fewer Conditions

Pressure 29.92 in
Visibility 10.0 miles
Clouds Clear
Dew Point 29 °F
Humidity 45%
Rainfall 0.00 in
Snow Depth Not available.
UV 0 out of 12
Pollen 10.80 out of 12
Air Quality Not available.
Flu Activity Local Activity
METAR KHAI 270054Z AUTO 31006KT 10SM CLR 10/M02 A2992 RMK AO2 T00961019

More Conditions Fewer Conditions

The full scope of the disaster following a powerful 7.8-magnitude earthquake in Nepal may not come into view for days, but global charities are already sending emergency aid. Click to see how you can help.

10-Day Weather Forecast

Almanac

Astronomy

Apr. 26, 2015 Rise Set
Actual Time
Civil Twilight
Nautical Twilight
Astronomical Twilight
Moon
Length of Visible Light
Length of Day
Tomorrow will be .
, % of the Moon is Illuminated

Today's Extremes

State Highs State Lows

Community

WunderPhotos

Upload Photos

1,817,191 photos uploaded!

WunderBlogs® & News

Nearby

Air Quality

  Air Quality AQ Index Pollutant
Not available.

Snow Depth

Station Depth Elevation

Earthquake Activity

City Distance Mag. Time & Date
Minimum magnitude displayed is 2.5.

Coastal Water Temperatures

Place Temperature

Stations

Nearby Weather Stations

Station Location Temp. Windchill Dew Point Humidity Wind Precip. Elev Updated Type